sensor_id;sensor_type;location;lat;lon;timestamp;temperature;humidity
25280;DHT22;13225;47.804;12.116;2023-12-20T00:01:32;3.00;99.90
25280;DHT22;13225;47.804;12.116;2023-12-20T00:03:57;3.00;99.90
25280;DHT22;13225;47.804;12.116;2023-12-20T00:06:23;3.10;99.90
25280;DHT22;13225;47.804;12.116;2023-12-20T00:08:49;3.10;99.90
25280;DHT22;13225;47.804;12.116;2023-12-20T00:11:15;3.00;99.90
25280;DHT22;13225;47.804;12.116;2023-12-20T00:13:40;3.10;99.90
25280;DHT22;13225;47.804;12.116;2023-12-20T00:16:06;3.00;99.90
25280;DHT22;13225;47.804;12.116;2023-12-20T00:18:31;3.00;99.90
25280;DHT22;13225;47.804;12.116;2023-12-20T00:20:57;2.90;99.90
25280;DHT22;13225;47.804;12.116;2023-12-20T00:23:23;2.90;99.90
25280;DHT22;13225;47.804;12.116;2023-12-20T00:25:49;2.80;99.90
25280;DHT22;13225;47.804;12.116;2023-12-20T00:28:15;2.80;99.90
25280;DHT22;13225;47.804;12.116;2023-12-20T00:30:40;2.80;99.90
25280;DHT22;13225;47.804;12.116;2023-12-20T00:33:06;2.70;99.90
25280;DHT22;13225;47.804;12.116;2023-12-20T00:35:31;2.70;99.90
25280;DHT22;13225;47.804;12.116;2023-12-20T00:37:58;2.70;99.90
25280;DHT22;13225;47.804;12.116;2023-12-20T00:40:24;2.70;99.90
25280;DHT22;13225;47.804;12.116;2023-12-20T00:42:49;2.70;99.90
25280;DHT22;13225;47.804;12.116;2023-12-20T00:45:15;2.70;99.90
25280;DHT22;13225;47.804;12.116;2023-12-20T00:47:40;2.60;99.90
25280;DHT22;13225;47.804;12.116;2023-12-20T00:50:07;2.50;99.90
25280;DHT22;13225;47.804;12.116;2023-12-20T00:52:32;2.50;99.90
25280;DHT22;13225;47.804;12.116;2023-12-20T00:54:58;2.60;99.90
25280;DHT22;13225;47.804;12.116;2023-12-20T00:57:23;2.50;99.90
25280;DHT22;13225;47.804;12.116;2023-12-20T00:59:49;2.60;99.90
25280;DHT22;13225;47.804;12.116;2023-12-20T01:02:15;2.60;99.90
25280;DHT22;13225;47.804;12.116;2023-12-20T01:04:40;2.60;99.90
25280;DHT22;13225;47.804;12.116;2023-12-20T01:07:06;2.70;99.90
25280;DHT22;13225;47.804;12.116;2023-12-20T01:09:31;2.70;99.90
25280;DHT22;13225;47.804;12.116;2023-12-20T01:11:57;2.70;99.90
25280;DHT22;13225;47.804;12.116;2023-12-20T01:14:22;2.70;99.90
25280;DHT22;13225;47.804;12.116;2023-12-20T01:16:48;2.70;99.90
25280;DHT22;13225;47.804;12.116;2023-12-20T01:19:13;2.70;99.90
25280;DHT22;13225;47.804;12.116;2023-12-20T01:21:40;2.60;99.90
25280;DHT22;13225;47.804;12.116;2023-12-20T01:24:06;2.60;99.90
25280;DHT22;13225;47.804;12.116;2023-12-20T01:26:31;2.60;99.90
25280;DHT22;13225;47.804;12.116;2023-12-20T01:28:57;2.60;99.90
25280;DHT22;13225;47.804;12.116;2023-12-20T01:31:22;2.60;99.90
25280;DHT22;13225;47.804;12.116;2023-12-20T01:33:48;2.70;99.90
25280;DHT22;13225;47.804;12.116;2023-12-20T01:36:13;2.70;99.90
25280;DHT22;13225;47.804;12.116;2023-12-20T01:38:39;2.80;99.90
25280;DHT22;13225;47.804;12.116;2023-12-20T01:41:05;2.80;99.90
25280;DHT22;13225;47.804;12.116;2023-12-20T01:43:31;2.80;99.90
25280;DHT22;13225;47.804;12.116;2023-12-20T01:45:57;2.80;99.90
25280;DHT22;13225;47.804;12.116;2023-12-20T01:48:24;2.80;99.90
25280;DHT22;13225;47.804;12.116;2023-12-20T01:50:50;2.70;99.90
25280;DHT22;13225;47.804;12.116;2023-12-20T01:53:17;2.70;99.90
25280;DHT22;13225;47.804;12.116;2023-12-20T01:55:44;2.70;99.90
25280;DHT22;13225;47.804;12.116;2023-12-20T01:58:10;2.70;99.90
25280;DHT22;13225;47.804;12.116;2023-12-20T02:00:37;2.70;99.90
25280;DHT22;13225;47.804;12.116;2023-12-20T02:03:04;2.60;99.90
25280;DHT22;13225;47.804;12.116;2023-12-20T02:05:31;2.60;99.90
25280;DHT22;13225;47.804;12.116;2023-12-20T02:07:57;2.60;99.90
25280;DHT22;13225;47.804;12.116;2023-12-20T02:10:23;2.70;99.90
25280;DHT22;13225;47.804;12.116;2023-12-20T02:12:49;2.70;99.90
25280;DHT22;13225;47.804;12.116;2023-12-20T02:15:14;2.70;99.90
25280;DHT22;13225;47.804;12.116;2023-12-20T02:17:40;2.60;99.90
25280;DHT22;13225;47.804;12.116;2023-12-20T02:20:06;2.60;99.90
25280;DHT22;13225;47.804;12.116;2023-12-20T02:22:32;2.60;99.90
25280;DHT22;13225;47.804;12.116;2023-12-20T02:24:58;2.60;99.90
25280;DHT22;13225;47.804;12.116;2023-12-20T02:27:24;2.60;99.90
25280;DHT22;13225;47.804;12.116;2023-12-20T02:29:50;2.70;99.90
25280;DHT22;13225;47.804;12.116;2023-12-20T02:32:17;2.70;99.90
25280;DHT22;13225;47.804;12.116;2023-12-20T02:34:43;2.80;99.90
25280;DHT22;13225;47.804;12.116;2023-12-20T02:37:09;2.70;99.90
25280;DHT22;13225;47.804;12.116;2023-12-20T02:39:34;2.80;99.90
25280;DHT22;13225;47.804;12.116;2023-12-20T02:42:00;2.80;99.90
25280;DHT22;13225;47.804;12.116;2023-12-20T02:44:25;2.90;99.90
25280;DHT22;13225;47.804;12.116;2023-12-20T02:46:51;2.90;99.90
25280;DHT22;13225;47.804;12.116;2023-12-20T02:49:17;2.90;99.90
25280;DHT22;13225;47.804;12.116;2023-12-20T02:51:42;2.90;99.90
25280;DHT22;13225;47.804;12.116;2023-12-20T02:54:08;2.90;99.90
25280;DHT22;13225;47.804;12.116;2023-12-20T02:56:33;2.90;99.90
25280;DHT22;13225;47.804;12.116;2023-12-20T02:58:59;3.00;99.90
25280;DHT22;13225;47.804;12.116;2023-12-20T03:01:24;3.00;99.90
25280;DHT22;13225;47.804;12.116;2023-12-20T03:03:50;3.00;99.90
25280;DHT22;13225;47.804;12.116;2023-12-20T03:06:19;3.10;99.90
25280;DHT22;13225;47.804;12.116;2023-12-20T03:08:45;3.10;99.90
25280;DHT22;13225;47.804;12.116;2023-12-20T03:11:11;3.10;99.90
25280;DHT22;13225;47.804;12.116;2023-12-20T03:13:36;3.10;99.90
25280;DHT22;13225;47.804;12.116;2023-12-20T03:16:11;3.10;99.90
25280;DHT22;13225;47.804;12.116;2023-12-20T03:18:37;3.10;99.90
25280;DHT22;13225;47.804;12.116;2023-12-20T03:21:04;3.20;99.90
25280;DHT22;13225;47.804;12.116;2023-12-20T03:23:30;3.30;99.90
25280;DHT22;13225;47.804;12.116;2023-12-20T03:25:58;3.40;99.90
25280;DHT22;13225;47.804;12.116;2023-12-20T03:28:23;3.40;99.90
25280;DHT22;13225;47.804;12.116;2023-12-20T03:30:49;3.40;99.90
25280;DHT22;13225;47.804;12.116;2023-12-20T03:33:15;3.50;99.90
25280;DHT22;13225;47.804;12.116;2023-12-20T03:35:41;3.50;99.90
25280;DHT22;13225;47.804;12.116;2023-12-20T03:38:07;3.40;99.90
25280;DHT22;13225;47.804;12.116;2023-12-20T03:40:32;3.50;99.90
25280;DHT22;13225;47.804;12.116;2023-12-20T03:42:58;3.50;99.90
25280;DHT22;13225;47.804;12.116;2023-12-20T03:45:23;3.50;99.90
25280;DHT22;13225;47.804;12.116;2023-12-20T03:47:49;3.40;99.90
25280;DHT22;13225;47.804;12.116;2023-12-20T03:50:15;3.40;99.90
25280;DHT22;13225;47.804;12.116;2023-12-20T03:52:40;3.40;99.90
25280;DHT22;13225;47.804;12.116;2023-12-20T03:55:06;3.40;99.90
25280;DHT22;13225;47.804;12.116;2023-12-20T03:57:32;3.40;99.90
25280;DHT22;13225;47.804;12.116;2023-12-20T03:59:57;3.50;99.90
25280;DHT22;13225;47.804;12.116;2023-12-20T04:02:23;3.50;99.90
25280;DHT22;13225;47.804;12.116;2023-12-20T04:04:48;3.50;99.90
25280;DHT22;13225;47.804;12.116;2023-12-20T04:07:14;3.50;99.90
25280;DHT22;13225;47.804;12.116;2023-12-20T04:09:40;3.50;99.90
25280;DHT22;13225;47.804;12.116;2023-12-20T04:12:06;3.50;99.90
25280;DHT22;13225;47.804;12.116;2023-12-20T04:14:32;3.60;99.90
25280;DHT22;13225;47.804;12.116;2023-12-20T04:16:58;3.70;99.90
25280;DHT22;13225;47.804;12.116;2023-12-20T04:19:23;3.70;99.90
25280;DHT22;13225;47.804;12.116;2023-12-20T04:21:49;3.80;99.90
25280;DHT22;13225;47.804;12.116;2023-12-20T04:24:15;3.90;99.90
25280;DHT22;13225;47.804;12.116;2023-12-20T04:26:40;3.90;99.90
25280;DHT22;13225;47.804;12.116;2023-12-20T04:29:06;3.90;99.90
25280;DHT22;13225;47.804;12.116;2023-12-20T04:31:31;4.00;99.90
25280;DHT22;13225;47.804;12.116;2023-12-20T04:33:57;4.00;99.90
25280;DHT22;13225;47.804;12.116;2023-12-20T04:36:23;4.00;99.90
25280;DHT22;13225;47.804;12.116;2023-12-20T04:38:50;4.20;99.90
25280;DHT22;13225;47.804;12.116;2023-12-20T04:41:15;5.40;99.90
25280;DHT22;13225;47.804;12.116;2023-12-20T04:43:41;7.00;99.90
25280;DHT22;13225;47.804;12.116;2023-12-20T04:46:07;7.90;99.90
25280;DHT22;13225;47.804;12.116;2023-12-20T04:48:32;7.90;99.90
25280;DHT22;13225;47.804;12.116;2023-12-20T04:50:58;8.00;99.90
25280;DHT22;13225;47.804;12.116;2023-12-20T04:53:24;8.00;99.90
25280;DHT22;13225;47.804;12.116;2023-12-20T04:55:49;7.80;99.90
25280;DHT22;13225;47.804;12.116;2023-12-20T04:58:15;7.70;99.90
25280;DHT22;13225;47.804;12.116;2023-12-20T05:00:41;7.80;99.90
25280;DHT22;13225;47.804;12.116;2023-12-20T05:03:06;7.80;99.90
25280;DHT22;13225;47.804;12.116;2023-12-20T05:05:33;7.80;99.90
25280;DHT22;13225;47.804;12.116;2023-12-20T05:07:58;7.70;99.90
25280;DHT22;13225;47.804;12.116;2023-12-20T05:10:24;7.60;99.90
25280;DHT22;13225;47.804;12.116;2023-12-20T05:12:49;7.40;99.90
25280;DHT22;13225;47.804;12.116;2023-12-20T05:15:15;7.30;99.90
25280;DHT22;13225;47.804;12.116;2023-12-20T05:17:40;7.20;99.90
25280;DHT22;13225;47.804;12.116;2023-12-20T05:20:06;7.00;99.90
25280;DHT22;13225;47.804;12.116;2023-12-20T05:22:32;7.00;99.90
25280;DHT22;13225;47.804;12.116;2023-12-20T05:24:58;6.90;99.90
25280;DHT22;13225;47.804;12.116;2023-12-20T05:27:24;6.90;99.90
25280;DHT22;13225;47.804;12.116;2023-12-20T05:29:49;6.80;99.90
25280;DHT22;13225;47.804;12.116;2023-12-20T05:32:17;6.80;99.90
25280;DHT22;13225;47.804;12.116;2023-12-20T05:34:42;6.70;99.90
25280;DHT22;13225;47.804;12.116;2023-12-20T05:37:08;6.60;99.90
25280;DHT22;13225;47.804;12.116;2023-12-20T05:39:33;6.80;99.90
25280;DHT22;13225;47.804;12.116;2023-12-20T05:41:59;6.90;99.90
25280;DHT22;13225;47.804;12.116;2023-12-20T05:44:25;6.90;99.90
25280;DHT22;13225;47.804;12.116;2023-12-20T05:46:50;6.90;99.90
25280;DHT22;13225;47.804;12.116;2023-12-20T05:49:16;6.90;99.90
25280;DHT22;13225;47.804;12.116;2023-12-20T05:51:41;7.00;99.90
25280;DHT22;13225;47.804;12.116;2023-12-20T05:54:08;7.10;99.90
25280;DHT22;13225;47.804;12.116;2023-12-20T05:56:34;7.10;99.90
25280;DHT22;13225;47.804;12.116;2023-12-20T05:58:59;7.10;99.90
25280;DHT22;13225;47.804;12.116;2023-12-20T06:01:25;7.00;99.90
25280;DHT22;13225;47.804;12.116;2023-12-20T06:03:50;6.90;99.90
25280;DHT22;13225;47.804;12.116;2023-12-20T06:06:16;7.00;99.90
25280;DHT22;13225;47.804;12.116;2023-12-20T06:08:43;6.90;99.90
25280;DHT22;13225;47.804;12.116;2023-12-20T06:11:09;6.80;99.90
25280;DHT22;13225;47.804;12.116;2023-12-20T06:13:34;6.80;99.90
25280;DHT22;13225;47.804;12.116;2023-12-20T06:16:01;6.70;99.90
25280;DHT22;13225;47.804;12.116;2023-12-20T06:18:26;6.70;99.90
25280;DHT22;13225;47.804;12.116;2023-12-20T06:20:52;6.70;99.90
25280;DHT22;13225;47.804;12.116;2023-12-20T06:23:18;6.70;99.90
25280;DHT22;13225;47.804;12.116;2023-12-20T06:25:44;6.70;99.90
25280;DHT22;13225;47.804;12.116;2023-12-20T06:28:09;6.70;99.90
25280;DHT22;13225;47.804;12.116;2023-12-20T06:30:36;6.60;99.90
25280;DHT22;13225;47.804;12.116;2023-12-20T06:33:01;6.60;99.90
25280;DHT22;13225;47.804;12.116;2023-12-20T06:35:27;6.60;99.90
25280;DHT22;13225;47.804;12.116;2023-12-20T06:37:52;6.60;99.90
25280;DHT22;13225;47.804;12.116;2023-12-20T06:40:18;6.60;99.90
25280;DHT22;13225;47.804;12.116;2023-12-20T06:42:44;6.60;99.90
25280;DHT22;13225;47.804;12.116;2023-12-20T06:45:10;6.50;99.90
25280;DHT22;13225;47.804;12.116;2023-12-20T06:47:35;6.50;99.90
25280;DHT22;13225;47.804;12.116;2023-12-20T06:50:01;6.40;99.90
25280;DHT22;13225;47.804;12.116;2023-12-20T06:52:26;6.40;99.90
25280;DHT22;13225;47.804;12.116;2023-12-20T06:54:52;6.30;99.90
25280;DHT22;13225;47.804;12.116;2023-12-20T06:57:18;6.30;99.90
25280;DHT22;13225;47.804;12.116;2023-12-20T06:59:45;6.40;99.90
25280;DHT22;13225;47.804;12.116;2023-12-20T07:02:10;6.30;99.90
25280;DHT22;13225;47.804;12.116;2023-12-20T07:04:40;6.20;99.90
25280;DHT22;13225;47.804;12.116;2023-12-20T07:07:06;6.20;99.90
25280;DHT22;13225;47.804;12.116;2023-12-20T07:09:32;6.10;99.90
25280;DHT22;13225;47.804;12.116;2023-12-20T07:11:58;6.00;99.90
25280;DHT22;13225;47.804;12.116;2023-12-20T07:14:24;6.00;99.90
25280;DHT22;13225;47.804;12.116;2023-12-20T07:16:49;6.00;99.90
25280;DHT22;13225;47.804;12.116;2023-12-20T07:19:15;6.00;99.90
25280;DHT22;13225;47.804;12.116;2023-12-20T07:21:40;6.00;99.90
25280;DHT22;13225;47.804;12.116;2023-12-20T07:24:06;6.00;99.90
25280;DHT22;13225;47.804;12.116;2023-12-20T07:26:33;5.90;99.90
25280;DHT22;13225;47.804;12.116;2023-12-20T07:28:59;5.80;99.90
25280;DHT22;13225;47.804;12.116;2023-12-20T07:31:25;5.90;99.90
25280;DHT22;13225;47.804;12.116;2023-12-20T07:33:50;5.90;99.90
25280;DHT22;13225;47.804;12.116;2023-12-20T07:36:16;5.90;99.90
25280;DHT22;13225;47.804;12.116;2023-12-20T07:38:41;5.80;99.90
25280;DHT22;13225;47.804;12.116;2023-12-20T07:41:10;5.90;99.90
25280;DHT22;13225;47.804;12.116;2023-12-20T07:43:36;5.90;99.90
25280;DHT22;13225;47.804;12.116;2023-12-20T07:46:06;5.90;99.90
25280;DHT22;13225;47.804;12.116;2023-12-20T07:48:32;5.90;99.90
25280;DHT22;13225;47.804;12.116;2023-12-20T07:50:57;5.80;99.90
25280;DHT22;13225;47.804;12.116;2023-12-20T07:53:23;5.80;99.90
25280;DHT22;13225;47.804;12.116;2023-12-20T07:55:48;5.90;99.90
25280;DHT22;13225;47.804;12.116;2023-12-20T07:58:14;5.90;99.90
25280;DHT22;13225;47.804;12.116;2023-12-20T08:00:39;5.80;99.90
25280;DHT22;13225;47.804;12.116;2023-12-20T08:03:05;5.80;99.90
25280;DHT22;13225;47.804;12.116;2023-12-20T08:05:30;5.80;99.90
25280;DHT22;13225;47.804;12.116;2023-12-20T08:07:56;5.80;99.90
25280;DHT22;13225;47.804;12.116;2023-12-20T08:10:22;5.70;99.90
25280;DHT22;13225;47.804;12.116;2023-12-20T08:12:47;5.80;99.90
25280;DHT22;13225;47.804;12.116;2023-12-20T08:15:13;5.80;99.90
25280;DHT22;13225;47.804;12.116;2023-12-20T08:17:39;5.80;99.90
25280;DHT22;13225;47.804;12.116;2023-12-20T08:20:05;5.80;99.90
25280;DHT22;13225;47.804;12.116;2023-12-20T08:22:31;5.80;99.90
25280;DHT22;13225;47.804;12.116;2023-12-20T08:24:57;5.80;99.90
25280;DHT22;13225;47.804;12.116;2023-12-20T08:27:22;5.90;99.90
25280;DHT22;13225;47.804;12.116;2023-12-20T08:29:48;5.90;99.90
25280;DHT22;13225;47.804;12.116;2023-12-20T08:32:15;6.00;99.90
25280;DHT22;13225;47.804;12.116;2023-12-20T08:34:41;6.00;99.90
25280;DHT22;13225;47.804;12.116;2023-12-20T08:37:06;6.00;99.90
25280;DHT22;13225;47.804;12.116;2023-12-20T08:39:32;6.00;99.90
25280;DHT22;13225;47.804;12.116;2023-12-20T08:41:59;5.90;99.90
25280;DHT22;13225;47.804;12.116;2023-12-20T08:44:25;5.90;99.90
25280;DHT22;13225;47.804;12.116;2023-12-20T08:46:51;6.00;99.90
25280;DHT22;13225;47.804;12.116;2023-12-20T08:49:16;6.00;99.90
25280;DHT22;13225;47.804;12.116;2023-12-20T08:51:42;6.00;99.90
25280;DHT22;13225;47.804;12.116;2023-12-20T08:54:08;6.10;99.90
25280;DHT22;13225;47.804;12.116;2023-12-20T08:56:34;6.10;99.90
25280;DHT22;13225;47.804;12.116;2023-12-20T08:58:59;6.20;99.90
25280;DHT22;13225;47.804;12.116;2023-12-20T09:01:25;6.20;99.90
25280;DHT22;13225;47.804;12.116;2023-12-20T09:03:50;6.30;99.90
25280;DHT22;13225;47.804;12.116;2023-12-20T09:06:16;6.30;99.90
25280;DHT22;13225;47.804;12.116;2023-12-20T09:08:41;6.30;99.90
25280;DHT22;13225;47.804;12.116;2023-12-20T09:11:07;6.30;99.90
25280;DHT22;13225;47.804;12.116;2023-12-20T09:13:33;6.30;99.90
25280;DHT22;13225;47.804;12.116;2023-12-20T09:15:58;6.30;99.90
25280;DHT22;13225;47.804;12.116;2023-12-20T09:18:24;6.20;99.90
25280;DHT22;13225;47.804;12.116;2023-12-20T09:20:50;6.20;99.90
25280;DHT22;13225;47.804;12.116;2023-12-20T09:23:15;6.30;99.90
25280;DHT22;13225;47.804;12.116;2023-12-20T09:25:42;6.20;99.90
25280;DHT22;13225;47.804;12.116;2023-12-20T09:28:07;6.20;99.90
25280;DHT22;13225;47.804;12.116;2023-12-20T09:30:33;6.20;99.90
25280;DHT22;13225;47.804;12.116;2023-12-20T09:33:00;6.10;99.90
25280;DHT22;13225;47.804;12.116;2023-12-20T09:35:26;6.10;99.90
25280;DHT22;13225;47.804;12.116;2023-12-20T09:37:51;6.00;99.90
25280;DHT22;13225;47.804;12.116;2023-12-20T09:40:19;6.00;99.90
25280;DHT22;13225;47.804;12.116;2023-12-20T09:42:53;6.00;99.90
25280;DHT22;13225;47.804;12.116;2023-12-20T09:45:20;5.90;99.90
25280;DHT22;13225;47.804;12.116;2023-12-20T09:47:53;5.90;99.90
25280;DHT22;13225;47.804;12.116;2023-12-20T09:50:22;5.90;99.90
25280;DHT22;13225;47.804;12.116;2023-12-20T09:52:52;5.90;99.90
25280;DHT22;13225;47.804;12.116;2023-12-20T09:55:19;5.90;99.90
25280;DHT22;13225;47.804;12.116;2023-12-20T09:57:45;5.90;99.90
25280;DHT22;13225;47.804;12.116;2023-12-20T10:00:12;5.90;99.90
25280;DHT22;13225;47.804;12.116;2023-12-20T10:02:42;6.00;99.90
25280;DHT22;13225;47.804;12.116;2023-12-20T10:05:16;5.90;99.90
25280;DHT22;13225;47.804;12.116;2023-12-20T10:07:42;6.00;99.90
25280;DHT22;13225;47.804;12.116;2023-12-20T10:10:08;6.00;99.90
25280;DHT22;13225;47.804;12.116;2023-12-20T10:12:34;6.00;99.90
25280;DHT22;13225;47.804;12.116;2023-12-20T10:14:59;6.10;99.90
25280;DHT22;13225;47.804;12.116;2023-12-20T10:17:27;6.10;99.90
25280;DHT22;13225;47.804;12.116;2023-12-20T10:19:54;6.10;99.90
25280;DHT22;13225;47.804;12.116;2023-12-20T10:22:20;6.10;99.90
25280;DHT22;13225;47.804;12.116;2023-12-20T10:24:46;6.10;99.90
25280;DHT22;13225;47.804;12.116;2023-12-20T10:27:12;6.20;99.90
25280;DHT22;13225;47.804;12.116;2023-12-20T10:29:38;6.20;99.90
25280;DHT22;13225;47.804;12.116;2023-12-20T10:32:23;6.20;99.90
25280;DHT22;13225;47.804;12.116;2023-12-20T10:34:50;6.20;99.90
25280;DHT22;13225;47.804;12.116;2023-12-20T10:37:16;6.30;99.90
25280;DHT22;13225;47.804;12.116;2023-12-20T10:39:43;6.30;99.90
25280;DHT22;13225;47.804;12.116;2023-12-20T10:42:12;6.30;99.90
25280;DHT22;13225;47.804;12.116;2023-12-20T10:44:38;6.40;99.90
25280;DHT22;13225;47.804;12.116;2023-12-20T10:47:05;6.40;99.90
25280;DHT22;13225;47.804;12.116;2023-12-20T10:49:35;6.40;99.90
25280;DHT22;13225;47.804;12.116;2023-12-20T10:52:02;6.50;99.90
25280;DHT22;13225;47.804;12.116;2023-12-20T10:54:29;6.50;99.90
25280;DHT22;13225;47.804;12.116;2023-12-20T10:56:57;6.50;99.90
25280;DHT22;13225;47.804;12.116;2023-12-20T10:59:24;6.60;99.90
25280;DHT22;13225;47.804;12.116;2023-12-20T11:01:50;6.60;99.90
25280;DHT22;13225;47.804;12.116;2023-12-20T11:04:39;6.50;99.90
25280;DHT22;13225;47.804;12.116;2023-12-20T11:07:23;6.60;99.90
25280;DHT22;13225;47.804;12.116;2023-12-20T11:10:13;6.50;99.90
25280;DHT22;13225;47.804;12.116;2023-12-20T11:12:48;6.50;99.90
25280;DHT22;13225;47.804;12.116;2023-12-20T11:15:15;6.50;99.90
25280;DHT22;13225;47.804;12.116;2023-12-20T11:17:44;6.50;99.90
25280;DHT22;13225;47.804;12.116;2023-12-20T11:20:11;6.50;99.90
25280;DHT22;13225;47.804;12.116;2023-12-20T11:22:38;6.50;99.90
25280;DHT22;13225;47.804;12.116;2023-12-20T11:27:34;6.50;99.90
25280;DHT22;13225;47.804;12.116;2023-12-20T11:30:03;6.50;99.90
25280;DHT22;13225;47.804;12.116;2023-12-20T11:32:33;6.50;99.90
25280;DHT22;13225;47.804;12.116;2023-12-20T11:37:38;6.50;99.90
25280;DHT22;13225;47.804;12.116;2023-12-20T11:40:11;6.50;99.90
25280;DHT22;13225;47.804;12.116;2023-12-20T11:42:40;6.50;99.90
25280;DHT22;13225;47.804;12.116;2023-12-20T11:45:14;6.60;99.90
25280;DHT22;13225;47.804;12.116;2023-12-20T11:47:45;6.50;99.90
25280;DHT22;13225;47.804;12.116;2023-12-20T11:50:11;6.40;99.90
25280;DHT22;13225;47.804;12.116;2023-12-20T11:52:37;6.50;99.90
25280;DHT22;13225;47.804;12.116;2023-12-20T11:55:03;6.50;99.90
25280;DHT22;13225;47.804;12.116;2023-12-20T11:57:29;6.40;99.90
25280;DHT22;13225;47.804;12.116;2023-12-20T11:59:55;6.40;99.90
25280;DHT22;13225;47.804;12.116;2023-12-20T12:02:21;6.40;99.90
25280;DHT22;13225;47.804;12.116;2023-12-20T12:04:48;6.40;99.90
25280;DHT22;13225;47.804;12.116;2023-12-20T12:07:14;6.30;99.90
25280;DHT22;13225;47.804;12.116;2023-12-20T12:09:39;6.40;99.90
25280;DHT22;13225;47.804;12.116;2023-12-20T12:12:06;6.60;99.90
25280;DHT22;13225;47.804;12.116;2023-12-20T12:14:32;6.60;99.90
25280;DHT22;13225;47.804;12.116;2023-12-20T12:16:57;6.60;99.90
25280;DHT22;13225;47.804;12.116;2023-12-20T12:19:24;6.60;99.90
25280;DHT22;13225;47.804;12.116;2023-12-20T12:21:51;6.50;99.90
25280;DHT22;13225;47.804;12.116;2023-12-20T12:24:20;6.50;99.90
25280;DHT22;13225;47.804;12.116;2023-12-20T12:26:50;6.50;99.90
25280;DHT22;13225;47.804;12.116;2023-12-20T12:29:16;6.60;99.90
25280;DHT22;13225;47.804;12.116;2023-12-20T12:31:42;6.70;99.90
25280;DHT22;13225;47.804;12.116;2023-12-20T12:34:08;6.60;99.90
25280;DHT22;13225;47.804;12.116;2023-12-20T12:36:34;6.60;99.90
25280;DHT22;13225;47.804;12.116;2023-12-20T12:39:03;6.70;99.90
25280;DHT22;13225;47.804;12.116;2023-12-20T12:41:30;6.70;99.90
25280;DHT22;13225;47.804;12.116;2023-12-20T12:43:55;6.60;99.90
25280;DHT22;13225;47.804;12.116;2023-12-20T12:46:21;6.60;99.90
25280;DHT22;13225;47.804;12.116;2023-12-20T12:48:47;6.60;99.90
25280;DHT22;13225;47.804;12.116;2023-12-20T12:51:12;6.60;99.90
25280;DHT22;13225;47.804;12.116;2023-12-20T12:53:39;6.70;99.90
25280;DHT22;13225;47.804;12.116;2023-12-20T12:56:05;6.70;99.90
25280;DHT22;13225;47.804;12.116;2023-12-20T12:58:31;6.70;99.90
25280;DHT22;13225;47.804;12.116;2023-12-20T13:00:57;6.70;99.90
25280;DHT22;13225;47.804;12.116;2023-12-20T13:03:22;6.60;99.90
25280;DHT22;13225;47.804;12.116;2023-12-20T13:05:48;6.60;99.90
25280;DHT22;13225;47.804;12.116;2023-12-20T13:08:14;6.60;99.90
25280;DHT22;13225;47.804;12.116;2023-12-20T13:10:40;6.60;99.90
25280;DHT22;13225;47.804;12.116;2023-12-20T13:13:06;6.60;99.90
25280;DHT22;13225;47.804;12.116;2023-12-20T13:15:31;6.60;99.90
25280;DHT22;13225;47.804;12.116;2023-12-20T13:17:57;6.60;99.90
25280;DHT22;13225;47.804;12.116;2023-12-20T13:20:22;6.60;99.90
25280;DHT22;13225;47.804;12.116;2023-12-20T13:22:48;6.70;99.90
25280;DHT22;13225;47.804;12.116;2023-12-20T13:25:14;6.70;99.90
25280;DHT22;13225;47.804;12.116;2023-12-20T13:27:39;6.70;99.90
25280;DHT22;13225;47.804;12.116;2023-12-20T13:30:06;6.80;99.90
25280;DHT22;13225;47.804;12.116;2023-12-20T13:32:32;6.90;99.90
25280;DHT22;13225;47.804;12.116;2023-12-20T13:34:58;6.90;99.90
25280;DHT22;13225;47.804;12.116;2023-12-20T13:37:23;6.90;99.90
25280;DHT22;13225;47.804;12.116;2023-12-20T13:39:49;7.00;99.90
25280;DHT22;13225;47.804;12.116;2023-12-20T13:42:15;7.00;99.90
25280;DHT22;13225;47.804;12.116;2023-12-20T13:44:40;6.90;99.90
25280;DHT22;13225;47.804;12.116;2023-12-20T13:47:06;6.80;99.90
25280;DHT22;13225;47.804;12.116;2023-12-20T13:49:31;6.80;99.90
25280;DHT22;13225;47.804;12.116;2023-12-20T13:51:57;6.80;99.90
25280;DHT22;13225;47.804;12.116;2023-12-20T13:54:24;6.80;99.90
25280;DHT22;13225;47.804;12.116;2023-12-20T13:56:50;6.90;99.90
25280;DHT22;13225;47.804;12.116;2023-12-20T13:59:15;6.90;99.90
25280;DHT22;13225;47.804;12.116;2023-12-20T14:01:41;6.90;99.90
25280;DHT22;13225;47.804;12.116;2023-12-20T14:04:07;6.80;99.90
25280;DHT22;13225;47.804;12.116;2023-12-20T14:06:33;6.80;99.90
25280;DHT22;13225;47.804;12.116;2023-12-20T14:08:58;6.80;99.90
25280;DHT22;13225;47.804;12.116;2023-12-20T14:11:27;6.70;99.90
25280;DHT22;13225;47.804;12.116;2023-12-20T14:13:53;6.70;99.90
25280;DHT22;13225;47.804;12.116;2023-12-20T14:16:23;6.70;99.90
25280;DHT22;13225;47.804;12.116;2023-12-20T14:18:49;6.70;99.90
25280;DHT22;13225;47.804;12.116;2023-12-20T14:21:14;6.70;99.90
25280;DHT22;13225;47.804;12.116;2023-12-20T14:23:40;6.70;99.90
25280;DHT22;13225;47.804;12.116;2023-12-20T14:26:05;6.60;99.90
25280;DHT22;13225;47.804;12.116;2023-12-20T14:28:31;6.70;99.90
25280;DHT22;13225;47.804;12.116;2023-12-20T14:30:56;6.60;99.90
25280;DHT22;13225;47.804;12.116;2023-12-20T14:33:22;6.60;99.90
25280;DHT22;13225;47.804;12.116;2023-12-20T14:35:48;6.70;99.90
25280;DHT22;13225;47.804;12.116;2023-12-20T14:38:13;6.60;99.90
25280;DHT22;13225;47.804;12.116;2023-12-20T14:40:40;6.60;99.90
25280;DHT22;13225;47.804;12.116;2023-12-20T14:43:06;6.60;99.90
25280;DHT22;13225;47.804;12.116;2023-12-20T14:45:32;6.60;99.90
25280;DHT22;13225;47.804;12.116;2023-12-20T14:47:57;6.60;99.90
25280;DHT22;13225;47.804;12.116;2023-12-20T14:50:24;6.60;99.90
25280;DHT22;13225;47.804;12.116;2023-12-20T14:52:49;6.50;99.90
25280;DHT22;13225;47.804;12.116;2023-12-20T14:55:15;6.50;99.90
25280;DHT22;13225;47.804;12.116;2023-12-20T14:57:42;6.50;99.90
25280;DHT22;13225;47.804;12.116;2023-12-20T15:00:08;6.50;99.90
25280;DHT22;13225;47.804;12.116;2023-12-20T15:02:33;6.50;99.90
25280;DHT22;13225;47.804;12.116;2023-12-20T15:04:59;6.40;99.90
25280;DHT22;13225;47.804;12.116;2023-12-20T15:07:24;6.40;99.90
25280;DHT22;13225;47.804;12.116;2023-12-20T15:09:50;6.40;99.90
25280;DHT22;13225;47.804;12.116;2023-12-20T15:12:15;6.00;99.90
25280;DHT22;13225;47.804;12.116;2023-12-20T15:14:41;5.70;99.90
25280;DHT22;13225;47.804;12.116;2023-12-20T15:17:07;5.60;99.90
25280;DHT22;13225;47.804;12.116;2023-12-20T15:19:32;5.60;99.90
25280;DHT22;13225;47.804;12.116;2023-12-20T15:21:58;5.40;99.90
25280;DHT22;13225;47.804;12.116;2023-12-20T15:24:26;5.30;99.90
25280;DHT22;13225;47.804;12.116;2023-12-20T15:26:54;5.20;99.90
25280;DHT22;13225;47.804;12.116;2023-12-20T15:29:21;5.20;99.90